Time;durP1;ratioP1;P1;durP2;ratioP2;P2;SDS_P1;SDS_P2;PMS_P1;PMS_P2;Temp;Humidity;BMP_temperature;BMP_pressure;BME280_temperature;BME280_humidity;BME280_pressure;Samples;Min_cycle;Max_cycle;Signal;HPM_P1;HPM_P2
2021/10/31 00:01:03;;;;;;;22.00;20.27;;;12.10;99.90;;;;;;4974911;28;20542;-74
2021/10/31 00:03:29;;;;;;;24.03;22.13;;;12.10;99.90;;;;;;4975150;28;20550;-77
2021/10/31 00:05:56;;;;;;;22.33;20.60;;;12.10;99.90;;;;;;4974948;28;20459;-76
2021/10/31 00:08:22;;;;;;;23.43;21.60;;;12.10;99.90;;;;;;4974948;28;20460;-75
2021/10/31 00:10:50;;;;;;;23.90;22.40;;;12.10;99.90;;;;;;4975113;28;20451;-74
2021/10/31 00:13:18;;;;;;;21.73;20.23;;;12.10;99.90;;;;;;4974981;28;20459;-75
2021/10/31 00:15:45;;;;;;;22.73;21.23;;;12.10;99.90;;;;;;4974802;28;20459;-74
2021/10/31 00:18:11;;;;;;;21.10;19.60;;;12.20;99.90;;;;;;4974839;28;20450;-75
2021/10/31 00:20:38;;;;;;;21.27;19.23;;;12.30;99.90;;;;;;4974623;28;20966;-75
2021/10/31 00:23:05;;;;;;;21.03;19.47;;;12.40;99.90;;;;;;4974693;28;20487;-74
2021/10/31 00:25:31;;;;;;;21.00;19.60;;;12.50;99.90;;;;;;4974635;28;20456;-75
2021/10/31 00:27:59;;;;;;;22.27;20.50;;;12.60;99.90;;;;;;4974393;28;20447;-76
2021/10/31 00:30:26;;;;;;;21.73;20.20;;;12.70;99.90;;;;;;4974381;28;20475;-75
2021/10/31 00:32:53;;;;;;;20.60;19.20;;;12.80;99.90;;;;;;4974401;28;20531;-75
2021/10/31 00:35:20;;;;;;;23.73;22.07;;;12.80;99.90;;;;;;4974383;28;20451;-75
2021/10/31 00:37:46;;;;;;;22.23;20.57;;;12.70;99.90;;;;;;4974342;28;21063;-76
2021/10/31 00:40:14;;;;;;;23.20;21.60;;;12.70;99.90;;;;;;4974373;28;20463;-74
2021/10/31 00:42:40;;;;;;;23.53;21.90;;;12.60;99.90;;;;;;4974091;28;20487;-75
2021/10/31 00:45:09;;;;;;;22.97;21.27;;;12.50;99.90;;;;;;4974262;28;20977;-77
2021/10/31 00:47:36;;;;;;;23.03;21.37;;;12.40;99.90;;;;;;4974445;28;20456;-75
2021/10/31 00:50:03;;;;;;;23.27;21.70;;;12.40;99.90;;;;;;4973928;28;20498;-75
2021/10/31 00:52:32;;;;;;;21.90;20.27;;;12.40;99.90;;;;;;4974336;28;20452;-74
2021/10/31 00:54:59;;;;;;;20.43;19.23;;;12.40;99.90;;;;;;4973450;28;21037;-75
2021/10/31 00:57:26;;;;;;;20.43;19.23;;;12.40;99.90;;;;;;4974042;28;20502;-75
2021/10/31 00:59:53;;;;;;;22.23;20.33;;;12.40;99.90;;;;;;4974092;28;20502;-75
2021/10/31 01:02:21;;;;;;;22.77;20.90;;;12.40;99.90;;;;;;4973888;28;20531;-74
2021/10/31 01:04:52;;;;;;;23.30;21.60;;;12.30;99.90;;;;;;4974122;28;20519;-75
2021/10/31 01:07:32;;;;;;;22.73;21.30;;;12.30;99.90;;;;;;4973904;28;20938;-75
2021/10/31 01:10:15;;;;;;;22.90;21.20;;;12.20;99.90;;;;;;4973689;28;20510;-74
2021/10/31 01:13:04;;;;;;;22.93;21.00;;;12.20;99.90;;;;;;4973735;28;20537;-74
2021/10/31 01:15:38;;;;;;;22.80;21.27;;;12.10;99.90;;;;;;4973578;28;20510;-75
2021/10/31 01:18:36;;;;;;;23.77;22.03;;;12.00;99.90;;;;;;4973502;28;20454;-74
2021/10/31 01:21:18;;;;;;;23.90;22.20;;;11.90;99.90;;;;;;4973607;28;20455;-74
2021/10/31 01:24:08;;;;;;;24.10;22.47;;;11.80;99.90;;;;;;4973650;28;20488;-74
2021/10/31 01:26:51;;;;;;;22.73;21.17;;;11.70;99.90;;;;;;4973249;28;20866;-75
2021/10/31 01:29:34;;;;;;;24.30;22.60;;;11.60;99.90;;;;;;4973042;28;20443;-74
2021/10/31 01:32:14;;;;;;;24.77;22.77;;;11.50;99.90;;;;;;4972370;28;21027;-75
2021/10/31 01:34:58;;;;;;;23.97;22.40;;;11.50;99.90;;;;;;4973032;28;20448;-73
2021/10/31 01:37:34;;;;;;;24.70;22.97;;;11.50;99.90;;;;;;4972793;28;20836;-74
2021/10/31 01:40:08;;;;;;;24.50;22.70;;;11.40;99.90;;;;;;4972705;28;20866;-74
2021/10/31 01:42:46;;;;;;;22.73;21.30;;;11.40;99.90;;;;;;4972634;28;20541;-74
2021/10/31 01:45:17;;;;;;;23.43;21.70;;;11.40;99.90;;;;;;4972323;28;20458;-75
2021/10/31 01:47:48;;;;;;;23.13;21.53;;;11.50;99.90;;;;;;4972727;28;20790;-75
2021/10/31 01:50:29;;;;;;;21.50;20.20;;;11.40;99.90;;;;;;4972752;28;20463;-74
2021/10/31 01:53:00;;;;;;;24.77;22.93;;;11.40;99.90;;;;;;4972373;28;20456;-75
2021/10/31 01:55:34;;;;;;;23.80;22.00;;;11.50;99.90;;;;;;4972414;28;20506;-74
2021/10/31 01:58:02;;;;;;;21.83;20.40;;;11.40;99.90;;;;;;4972340;28;20459;-75
2021/10/31 02:00:31;;;;;;;24.10;22.37;;;11.40;99.90;;;;;;4972082;28;20515;-74
2021/10/31 02:03:01;;;;;;;23.57;22.07;;;11.40;99.90;;;;;;4972203;28;21373;-74
2021/10/31 02:05:34;;;;;;;23.37;21.80;;;11.40;99.90;;;;;;4971853;28;20550;-74
2021/10/31 02:08:05;;;;;;;21.60;20.20;;;11.40;99.90;;;;;;4972232;28;20549;-73
2021/10/31 02:10:35;;;;;;;24.30;22.60;;;11.40;99.90;;;;;;4972239;28;20818;-74
2021/10/31 02:13:03;;;;;;;25.17;23.37;;;11.30;99.90;;;;;;4971917;28;20440;-73
2021/10/31 02:15:31;;;;;;;25.53;23.83;;;11.20;99.90;;;;;;4972131;28;20514;-72
2021/10/31 02:18:00;;;;;;;25.13;23.27;;;11.20;99.90;;;;;;4971991;28;20452;-74
2021/10/31 02:20:29;;;;;;;24.63;23.00;;;11.10;99.90;;;;;;4971934;28;20890;-74
2021/10/31 02:22:57;;;;;;;25.97;24.07;;;11.00;99.90;;;;;;4971599;28;20855;-73
2021/10/31 02:25:26;;;;;;;26.40;24.40;;;10.80;99.90;;;;;;4971834;28;20457;-73
2021/10/31 02:27:53;;;;;;;26.60;24.50;;;10.80;99.90;;;;;;4972001;28;20530;-72
2021/10/31 02:30:21;;;;;;;27.57;25.37;;;10.70;99.90;;;;;;4972078;28;21012;-73
2021/10/31 02:32:48;;;;;;;28.60;26.33;;;10.60;99.90;;;;;;4971435;28;20604;-72
2021/10/31 02:35:15;;;;;;;27.80;25.70;;;10.60;99.90;;;;;;4972004;28;20551;-72
2021/10/31 02:37:42;;;;;;;27.37;25.47;;;10.50;99.90;;;;;;4971789;28;20474;-75
2021/10/31 02:40:13;;;;;;;27.33;25.23;;;10.40;99.90;;;;;;4971739;28;20888;-74
2021/10/31 02:42:40;;;;;;;26.40;24.43;;;10.40;99.90;;;;;;4971636;28;20619;-75
2021/10/31 02:45:09;;;;;;;28.00;26.00;;;10.40;99.90;;;;;;4971682;28;20478;-75
2021/10/31 02:47:39;;;;;;;27.37;25.57;;;10.40;99.90;;;;;;4971790;28;21001;-74
2021/10/31 02:50:09;;;;;;;27.27;25.40;;;10.30;99.90;;;;;;4972035;28;20460;-74
2021/10/31 02:52:54;;;;;;;26.23;24.30;;;10.40;99.90;;;;;;4971752;28;20447;-74
2021/10/31 02:55:27;;;;;;;27.67;25.67;;;10.40;99.90;;;;;;4971698;28;20961;-73
2021/10/31 02:57:57;;;;;;;27.53;25.40;;;10.40;99.90;;;;;;4971874;28;20462;-73
2021/10/31 03:00:27;;;;;;;26.00;24.30;;;10.40;99.90;;;;;;4971835;28;20448;-74
2021/10/31 03:02:54;;;;;;;27.23;24.97;;;10.50;99.90;;;;;;4971925;28;20487;-74
2021/10/31 03:05:21;;;;;;;25.93;24.03;;;10.50;99.90;;;;;;4971870;28;20522;-74
2021/10/31 03:07:48;;;;;;;27.17;24.97;;;10.50;99.90;;;;;;4971544;28;20444;-74
2021/10/31 03:10:19;;;;;;;26.63;24.73;;;10.50;99.90;;;;;;4971442;28;20468;-74
2021/10/31 03:12:49;;;;;;;25.47;23.60;;;10.40;99.90;;;;;;4971338;28;20944;-74
2021/10/31 03:15:16;;;;;;;26.63;24.70;;;10.50;99.90;;;;;;4971357;28;20451;-74
2021/10/31 03:17:43;;;;;;;26.47;24.77;;;10.40;99.90;;;;;;4972565;28;20508;-74
2021/10/31 03:20:11;;;;;;;26.13;24.37;;;10.40;99.90;;;;;;4975127;28;20451;-74
2021/10/31 03:22:38;;;;;;;25.80;24.00;;;10.40;99.90;;;;;;4975200;28;20494;-74
2021/10/31 03:25:05;;;;;;;25.93;23.93;;;10.30;99.90;;;;;;4981143;28;20493;-75
2021/10/31 03:27:32;;;;;;;28.33;26.33;;;10.30;99.90;;;;;;4993325;28;20442;-75
2021/10/31 03:30:00;;;;;;;26.70;24.83;;;10.30;99.90;;;;;;4992713;28;20482;-74
2021/10/31 03:32:27;;;;;;;28.03;26.13;;;10.20;99.90;;;;;;4993025;28;20490;-75
2021/10/31 03:34:54;;;;;;;25.47;23.67;;;10.20;99.90;;;;;;4993099;28;20540;-74
2021/10/31 03:37:21;;;;;;;27.23;25.13;;;10.30;99.90;;;;;;4993286;28;20447;-75
2021/10/31 03:39:48;;;;;;;25.37;23.67;;;10.20;99.90;;;;;;4993565;28;20449;-74
2021/10/31 03:42:14;;;;;;;27.00;24.90;;;10.10;99.90;;;;;;4992846;28;20477;-75
2021/10/31 03:44:48;;;;;;;27.40;25.50;;;10.10;99.90;;;;;;4992785;28;20488;-74
2021/10/31 03:47:20;;;;;;;27.80;25.70;;;10.10;99.90;;;;;;4992968;28;20485;-75
2021/10/31 03:49:46;;;;;;;27.07;25.17;;;10.10;99.90;;;;;;4990527;28;20537;-74
2021/10/31 03:52:13;;;;;;;27.90;25.83;;;10.00;99.90;;;;;;4992883;28;20510;-75
2021/10/31 03:54:40;;;;;;;28.10;26.00;;;10.00;99.90;;;;;;4992540;28;20474;-75
2021/10/31 03:57:07;;;;;;;27.10;25.23;;;9.90;99.90;;;;;;4992700;28;20456;-75
2021/10/31 03:59:34;;;;;;;27.80;25.80;;;9.90;99.90;;;;;;4993025;28;20501;-75
2021/10/31 04:02:01;;;;;;;28.73;26.53;;;9.90;99.90;;;;;;4992697;28;20801;-73
2021/10/31 04:04:29;;;;;;;27.70;25.70;;;9.90;99.90;;;;;;4992650;28;20561;-76
2021/10/31 04:06:56;;;;;;;29.57;26.67;;;9.90;99.90;;;;;;4992437;28;20781;-76
2021/10/31 04:09:23;;;;;;;28.37;26.10;;;9.80;99.90;;;;;;4992938;28;20439;-73
2021/10/31 04:11:49;;;;;;;27.70;25.70;;;9.80;99.90;;;;;;4992676;28;20820;-76
2021/10/31 04:14:16;;;;;;;29.30;27.20;;;9.80;99.90;;;;;;4993373;28;20447;-77
2021/10/31 04:16:44;;;;;;;30.70;27.97;;;9.70;99.90;;;;;;4992482;28;20462;-76
2021/10/31 04:19:11;;;;;;;27.57;25.63;;;9.70;99.90;;;;;;4992105;28;20545;-75
2021/10/31 04:21:39;;;;;;;27.33;25.23;;;9.70;99.90;;;;;;4992491;28;20862;-74
2021/10/31 04:24:06;;;;;;;28.83;26.23;;;9.70;99.90;;;;;;4991899;28;20482;-75
2021/10/31 04:26:32;;;;;;;29.90;27.70;;;9.70;99.90;;;;;;4992169;28;20447;-76
2021/10/31 04:28:59;;;;;;;27.60;25.70;;;9.60;99.90;;;;;;4991133;28;20574;-74
2021/10/31 04:31:26;;;;;;;28.40;26.40;;;9.60;99.90;;;;;;4991926;28;20480;-75
2021/10/31 04:33:52;;;;;;;27.77;25.87;;;9.70;99.90;;;;;;4992096;28;20447;-74
2021/10/31 04:36:19;;;;;;;28.20;25.63;;;9.70;99.90;;;;;;4992139;28;20489;-74
2021/10/31 04:38:52;;;;;;;27.50;25.60;;;9.60;99.90;;;;;;4991805;28;20443;-75
2021/10/31 04:41:19;;;;;;;26.70;24.80;;;9.60;99.90;;;;;;4992108;28;20821;-74
2021/10/31 04:43:45;;;;;;;27.53;25.63;;;9.60;99.90;;;;;;4991545;28;20484;-74
2021/10/31 04:46:12;;;;;;;28.30;26.20;;;9.60;99.90;;;;;;4991766;28;20451;-76
2021/10/31 04:48:39;;;;;;;26.63;24.63;;;9.60;99.90;;;;;;4991625;28;20451;-74
2021/10/31 04:51:05;;;;;;;28.47;26.40;;;9.60;99.90;;;;;;4992145;28;20442;-77
2021/10/31 04:53:32;;;;;;;26.57;24.57;;;9.60;99.90;;;;;;4992065;28;20455;-76
2021/10/31 04:56:01;;;;;;;27.33;25.03;;;9.50;99.90;;;;;;4991870;28;20461;-75
2021/10/31 04:58:28;;;;;;;28.03;26.13;;;9.50;99.90;;;;;;4991705;28;20446;-75
2021/10/31 05:00:54;;;;;;;27.63;25.60;;;9.60;99.90;;;;;;4991879;28;20454;-76
2021/10/31 05:03:21;;;;;;;26.97;25.10;;;9.60;99.90;;;;;;4991676;28;20996;-76
2021/10/31 05:05:48;;;;;;;27.83;25.70;;;9.60;99.90;;;;;;4991869;28;20475;-75
2021/10/31 05:08:15;;;;;;;28.70;26.50;;;9.70;99.90;;;;;;4991746;28;20447;-76
2021/10/31 05:10:41;;;;;;;28.10;25.87;;;9.60;99.90;;;;;;4991493;28;20447;-75
2021/10/31 05:13:09;;;;;;;28.30;26.13;;;9.60;99.90;;;;;;4991558;28;20909;-75
2021/10/31 05:15:36;;;;;;;27.07;25.07;;;9.60;99.90;;;;;;4991720;28;20439;-76
2021/10/31 05:18:03;;;;;;;28.93;26.70;;;9.60;99.90;;;;;;4991289;28;20453;-75
2021/10/31 05:20:30;;;;;;;28.70;26.63;;;9.60;99.90;;;;;;4992604;28;20513;-76
2021/10/31 05:22:57;;;;;;;27.67;25.57;;;9.50;99.90;;;;;;4992571;28;20459;-76
2021/10/31 05:25:24;;;;;;;26.50;24.70;;;9.50;99.90;;;;;;4992324;28;20516;-75
2021/10/31 05:27:51;;;;;;;28.67;26.30;;;9.50;99.90;;;;;;4992598;28;20463;-76
2021/10/31 05:30:19;;;;;;;27.73;25.70;;;9.50;99.90;;;;;;4992425;28;20817;-75
2021/10/31 05:32:47;;;;;;;28.50;26.40;;;9.50;99.90;;;;;;4992126;28;20493;-75
2021/10/31 05:35:14;;;;;;;26.33;24.63;;;9.40;99.90;;;;;;4992412;28;20459;-75
2021/10/31 05:37:44;;;;;;;28.50;26.40;;;9.40;99.90;;;;;;4992129;28;20517;-74
2021/10/31 05:40:12;;;;;;;30.03;27.37;;;9.30;99.90;;;;;;4991949;28;20793;-74
2021/10/31 05:42:39;;;;;;;27.77;25.83;;;9.30;99.90;;;;;;4992039;28;20451;-74
2021/10/31 05:45:07;;;;;;;28.37;26.07;;;9.30;99.90;;;;;;4992504;28;20482;-75
2021/10/31 05:47:38;;;;;;;27.37;25.47;;;9.20;99.90;;;;;;4992282;28;20817;-74
2021/10/31 05:50:06;;;;;;;29.43;27.20;;;9.20;99.90;;;;;;4992436;28;20453;-73
2021/10/31 05:52:33;;;;;;;27.77;25.67;;;9.20;99.90;;;;;;4992578;28;20458;-75
2021/10/31 05:55:01;;;;;;;27.93;25.73;;;9.20;99.90;;;;;;4992129;28;20446;-73
2021/10/31 05:57:27;;;;;;;27.50;25.40;;;9.30;99.90;;;;;;4991627;28;20458;-73
2021/10/31 05:59:54;;;;;;;27.20;25.30;;;9.30;99.90;;;;;;4991700;28;20455;-74
2021/10/31 06:02:21;;;;;;;29.30;27.03;;;9.30;99.90;;;;;;4991924;28;20459;-74
2021/10/31 06:04:50;;;;;;;26.57;24.70;;;9.30;99.90;;;;;;4991545;28;20502;-74
2021/10/31 06:07:17;;;;;;;28.00;25.90;;;9.20;99.90;;;;;;4991867;28;20487;-74
2021/10/31 06:09:43;;;;;;;29.83;27.60;;;9.20;99.90;;;;;;4991924;28;20638;-74
2021/10/31 06:12:10;;;;;;;29.07;26.87;;;9.30;99.90;;;;;;4991364;28;20450;-73
2021/10/31 06:14:38;;;;;;;28.63;26.60;;;9.30;99.90;;;;;;4991601;28;20459;-74
2021/10/31 06:17:05;;;;;;;30.40;28.20;;;9.30;99.90;;;;;;4991734;28;20451;-74
2021/10/31 06:19:33;;;;;;;27.57;25.57;;;9.30;99.90;;;;;;4991744;28;20455;-73
2021/10/31 06:22:02;;;;;;;29.13;27.00;;;9.20;99.90;;;;;;4991158;28;20461;-76
2021/10/31 06:24:28;;;;;;;28.10;26.10;;;9.30;99.90;;;;;;4991193;28;20707;-76
2021/10/31 06:26:55;;;;;;;29.67;27.53;;;9.30;99.90;;;;;;4991183;28;20521;-76
2021/10/31 06:29:22;;;;;;;27.73;25.77;;;9.30;99.90;;;;;;4991532;28;20943;-75
2021/10/31 06:31:48;;;;;;;28.67;26.53;;;9.40;99.90;;;;;;4991202;28;20500;-74
2021/10/31 06:34:15;;;;;;;28.83;26.73;;;9.40;99.90;;;;;;4991248;28;20455;-76
2021/10/31 06:36:43;;;;;;;28.37;26.47;;;9.40;99.90;;;;;;4991186;28;20458;-74
2021/10/31 06:39:12;;;;;;;28.60;26.40;;;9.50;99.90;;;;;;4991243;28;20524;-75
2021/10/31 06:41:38;;;;;;;27.07;25.17;;;9.50;99.90;;;;;;4991024;28;20457;-75
2021/10/31 06:44:06;;;;;;;28.67;26.30;;;9.60;99.90;;;;;;4991181;28;20491;-74
2021/10/31 06:46:32;;;;;;;26.03;24.30;;;9.70;99.90;;;;;;4991211;28;20447;-75
2021/10/31 06:49:00;;;;;;;26.47;24.57;;;9.90;99.90;;;;;;4990855;28;20861;-75
2021/10/31 06:51:26;;;;;;;26.57;24.67;;;10.10;99.90;;;;;;4990795;28;20731;-75
2021/10/31 06:53:53;;;;;;;26.47;24.53;;;10.30;99.90;;;;;;4991098;28;20446;-75
2021/10/31 06:56:21;;;;;;;26.73;24.93;;;10.50;99.90;;;;;;4991231;28;20453;-76
2021/10/31 06:58:48;;;;;;;25.10;23.60;;;10.60;99.90;;;;;;4991080;28;20494;-75
2021/10/31 07:01:14;;;;;;;23.97;22.33;;;10.80;99.90;;;;;;4990816;28;20458;-74
2021/10/31 07:03:45;;;;;;;23.67;22.07;;;10.90;99.90;;;;;;4990776;28;20446;-76
2021/10/31 07:06:12;;;;;;;21.90;20.50;;;11.00;99.90;;;;;;4991057;28;20490;-76
2021/10/31 07:08:39;;;;;;;22.07;20.47;;;11.00;99.90;;;;;;4991198;28;20462;-76
2021/10/31 07:11:05;;;;;;;22.30;20.90;;;11.00;99.90;;;;;;4991110;28;20529;-76
2021/10/31 07:13:34;;;;;;;20.73;19.53;;;10.90;99.90;;;;;;4991401;28;20464;-75
2021/10/31 07:16:01;;;;;;;23.17;21.53;;;11.00;99.90;;;;;;4991139;28;20481;-77
2021/10/31 07:18:27;;;;;;;24.67;22.97;;;11.30;99.90;;;;;;4990913;28;20882;-76
2021/10/31 07:20:54;;;;;;;21.70;20.20;;;11.60;99.90;;;;;;4990615;28;20458;-76
2021/10/31 07:23:21;;;;;;;21.80;20.43;;;12.00;99.90;;;;;;4990915;28;20550;-75
2021/10/31 07:25:48;;;;;;;21.00;19.67;;;12.00;99.90;;;;;;4990755;28;20486;-75
2021/10/31 07:28:15;;;;;;;20.80;19.50;;;12.10;99.90;;;;;;4990815;28;20462;-76
2021/10/31 07:30:43;;;;;;;23.77;22.23;;;12.30;99.90;;;;;;4990616;28;21036;-76
2021/10/31 07:33:09;;;;;;;21.53;20.07;;;12.20;99.90;;;;;;4990279;28;20489;-75
2021/10/31 07:35:36;;;;;;;21.20;19.90;;;12.40;99.90;;;;;;4990839;28;20443;-75
2021/10/31 07:38:03;;;;;;;21.67;20.27;;;12.50;99.90;;;;;;4990988;28;20469;-75
2021/10/31 07:40:30;;;;;;;22.70;21.23;;;12.50;99.90;;;;;;4990563;28;20455;-75
2021/10/31 07:42:57;;;;;;;21.87;20.67;;;12.50;99.90;;;;;;4990723;28;20463;-74
2021/10/31 07:45:24;;;;;;;24.80;23.20;;;12.40;99.90;;;;;;4990587;28;20490;-75
2021/10/31 07:47:53;;;;;;;23.23;21.73;;;12.40;99.90;;;;;;4990513;28;20815;-75
2021/10/31 07:50:20;;;;;;;23.10;21.67;;;12.40;99.90;;;;;;4990655;28;20466;-75
2021/10/31 07:52:47;;;;;;;21.87;20.40;;;12.30;99.90;;;;;;4990694;28;20451;-75
2021/10/31 07:55:17;;;;;;;21.57;20.27;;;12.20;99.90;;;;;;4990598;28;20450;-75
2021/10/31 07:57:46;;;;;;;20.43;19.03;;;12.40;99.90;;;;;;4990426;28;20458;-75
2021/10/31 08:00:14;;;;;;;19.63;18.33;;;13.00;99.90;;;;;;4990193;28;20458;-75
2021/10/31 08:02:41;;;;;;;20.47;18.80;;;13.70;99.90;;;;;;4990402;28;20457;-80
2021/10/31 08:05:09;;;;;;;22.13;20.57;;;14.10;99.90;;;;;;4991956;28;20479;-74
2021/10/31 08:07:36;;;;;;;22.00;20.60;;;14.00;99.90;;;;;;4992946;28;20443;-75
2021/10/31 08:10:03;;;;;;;22.70;20.90;;;13.90;99.90;;;;;;4992853;28;20443;-75
2021/10/31 08:12:30;;;;;;;23.10;21.60;;;13.50;99.90;;;;;;4992323;28;20447;-75
2021/10/31 08:14:56;;;;;;;22.40;21.00;;;13.20;99.90;;;;;;4992452;28;20439;-74
2021/10/31 08:17:23;;;;;;;22.73;21.10;;;13.10;99.90;;;;;;4992734;28;20474;-74
2021/10/31 08:19:50;;;;;;;22.77;21.27;;;12.80;99.90;;;;;;4992385;28;20450;-75
2021/10/31 08:22:18;;;;;;;24.23;22.40;;;12.50;99.90;;;;;;4992570;28;20447;-75
2021/10/31 08:24:45;;;;;;;23.17;21.20;;;12.40;99.90;;;;;;4992018;28;20494;-74
2021/10/31 08:27:14;;;;;;;24.07;22.37;;;12.40;99.90;;;;;;4992065;28;20505;-75
2021/10/31 08:29:42;;;;;;;22.00;20.63;;;12.50;99.90;;;;;;4992264;28;20447;-75
2021/10/31 08:32:09;;;;;;;21.30;19.93;;;12.50;99.90;;;;;;4992121;28;20484;-75
2021/10/31 08:34:35;;;;;;;21.73;20.20;;;12.60;99.90;;;;;;4992402;28;20457;-75
2021/10/31 08:37:02;;;;;;;20.03;18.63;;;12.70;99.90;;;;;;4992146;28;20451;-75
2021/10/31 08:39:30;;;;;;;19.43;18.23;;;12.90;99.90;;;;;;4992133;28;20443;-75
2021/10/31 08:41:57;;;;;;;19.77;18.27;;;12.90;99.90;;;;;;4991975;28;20442;-76
2021/10/31 08:44:24;;;;;;;19.57;18.30;;;12.90;99.90;;;;;;4992148;28;20521;-75
2021/10/31 08:46:51;;;;;;;19.60;18.40;;;13.10;99.90;;;;;;4992153;28;20443;-75
2021/10/31 08:49:19;;;;;;;18.90;17.60;;;13.50;99.90;;;;;;4992021;28;20446;-75
2021/10/31 08:51:46;;;;;;;18.37;17.20;;;13.60;99.90;;;;;;4989423;28;20454;-76
2021/10/31 08:54:13;;;;;;;18.60;17.50;;;13.90;99.90;;;;;;4991889;28;20481;-73
2021/10/31 08:56:41;;;;;;;17.33;16.30;;;14.40;99.90;;;;;;4991690;28;20443;-75
2021/10/31 08:59:08;;;;;;;15.53;14.57;;;14.50;99.90;;;;;;4989560;28;20455;-76
2021/10/31 09:01:35;;;;;;;17.73;16.73;;;14.60;99.90;;;;;;4992492;28;20458;-75
2021/10/31 09:04:02;;;;;;;17.17;16.03;;;14.70;99.90;;;;;;4993180;28;20505;-76
2021/10/31 09:06:29;;;;;;;16.10;15.20;;;15.00;99.90;;;;;;4992952;28;20451;-75
2021/10/31 09:08:56;;;;;;;17.50;16.40;;;15.20;99.90;;;;;;4993214;28;20463;-75
2021/10/31 09:11:23;;;;;;;19.33;18.03;;;15.40;99.90;;;;;;4992774;28;20459;-74
2021/10/31 09:13:51;;;;;;;17.20;16.23;;;15.40;99.90;;;;;;4990329;28;20945;-75
2021/10/31 09:16:18;;;;;;;16.30;15.20;;;15.70;99.90;;;;;;4992405;28;20820;-74
2021/10/31 09:18:45;;;;;;;18.07;17.07;;;15.80;99.90;;;;;;4992621;28;20509;-74
2021/10/31 09:21:12;;;;;;;17.43;16.33;;;15.90;99.90;;;;;;4992397;28;20820;-74
2021/10/31 09:23:39;;;;;;;17.17;16.17;;;15.80;99.90;;;;;;4992575;28;20509;-74
2021/10/31 09:26:05;;;;;;;17.00;15.90;;;15.90;99.90;;;;;;4992532;28;20565;-75
2021/10/31 09:28:32;;;;;;;17.23;16.20;;;15.90;99.90;;;;;;4992587;28;20959;-75
2021/10/31 09:31:01;;;;;;;16.53;15.50;;;15.70;99.90;;;;;;4992278;28;20545;-74
2021/10/31 09:33:27;;;;;;;17.33;16.20;;;15.70;99.90;;;;;;4992339;28;20464;-75
2021/10/31 09:35:57;;;;;;;17.10;16.07;;;16.10;99.90;;;;;;4992213;28;20850;-75
2021/10/31 09:38:28;;;;;;;15.77;14.70;;;16.70;99.90;;;;;;4992384;28;20778;-74
2021/10/31 09:40:55;;;;;;;16.20;15.10;;;17.30;99.90;;;;;;4992127;28;20461;-74
2021/10/31 09:43:23;;;;;;;17.10;16.20;;;17.80;99.90;;;;;;4992289;28;20541;-75
2021/10/31 09:45:50;;;;;;;16.37;15.47;;;18.60;99.90;;;;;;4992204;28;20490;-75
2021/10/31 09:48:18;;;;;;;16.37;15.47;;;18.90;99.90;;;;;;4992028;28;20814;-74
2021/10/31 09:50:47;;;;;;;16.37;15.53;;;18.80;99.90;;;;;;4991984;28;20459;-74
2021/10/31 09:53:17;;;;;;;16.20;15.40;;;18.60;99.90;;;;;;4991969;28;20451;-75
2021/10/31 09:55:44;;;;;;;16.57;15.40;;;18.70;99.90;;;;;;4991878;28;20509;-75
2021/10/31 09:58:18;;;;;;;16.30;15.30;;;18.70;99.90;;;;;;4992045;28;20465;-74
2021/10/31 10:00:46;;;;;;;16.10;15.30;;;19.10;99.90;;;;;;4991832;28;20513;-75
2021/10/31 10:03:35;;;;;;;17.07;16.07;;;19.50;99.90;;;;;;4991822;28;20456;-75
2021/10/31 10:06:25;;;;;;;17.27;16.33;;;19.70;99.90;;;;;;4991849;28;20494;-74
2021/10/31 10:09:01;;;;;;;16.13;15.33;;;19.90;99.90;;;;;;4987800;28;20466;-75
2021/10/31 10:11:30;;;;;;;16.43;15.53;;;20.30;99.90;;;;;;4991649;28;20455;-75
2021/10/31 10:14:11;;;;;;;16.20;15.40;;;20.50;99.90;;;;;;4991399;28;20447;-75
2021/10/31 10:16:40;;;;;;;16.17;15.37;;;20.40;99.90;;;;;;4991632;28;20443;-75
2021/10/31 10:19:22;;;;;;;15.37;14.37;;;20.60;99.90;;;;;;4991555;28;20455;-75
2021/10/31 10:22:00;;;;;;;16.33;15.53;;;21.20;99.30;;;;;;4991656;28;20455;-76
2021/10/31 10:24:28;;;;;;;16.47;15.57;;;22.30;97.40;;;;;;4991301;28;20460;-74
2021/10/31 10:26:58;;;;;;;15.50;14.70;;;21.90;97.00;;;;;;4990497;28;20964;-75
2021/10/31 10:29:27;;;;;;;15.60;14.90;;;21.50;97.50;;;;;;4991394;28;20517;-75
2021/10/31 10:31:57;;;;;;;15.70;15.00;;;21.90;97.30;;;;;;4991128;28;20558;-76
2021/10/31 10:34:42;;;;;;;16.53;15.73;;;22.20;96.70;;;;;;4991428;28;20455;-75
2021/10/31 10:37:12;;;;;;;15.27;14.43;;;21.90;96.90;;;;;;4991062;28;20458;-75
2021/10/31 10:39:41;;;;;;;15.93;15.03;;;22.10;96.90;;;;;;4991229;28;20443;-76
2021/10/31 10:42:08;;;;;;;15.57;14.80;;;22.40;96.10;;;;;;4991385;28;20822;-76
2021/10/31 10:44:37;;;;;;;15.67;14.90;;;23.00;95.70;;;;;;4991403;28;20446;-75
2021/10/31 10:47:05;;;;;;;15.57;14.77;;;23.30;94.80;;;;;;4991461;28;20455;-75
2021/10/31 10:49:35;;;;;;;16.03;15.30;;;23.30;94.30;;;;;;4991062;28;20473;-75
2021/10/31 10:52:24;;;;;;;15.80;15.00;;;23.30;94.90;;;;;;4991039;28;20458;-75
2021/10/31 10:54:57;;;;;;;16.47;15.67;;;24.30;93.70;;;;;;4991453;28;20493;-74
2021/10/31 10:57:27;;;;;;;16.30;15.60;;;25.90;91.50;;;;;;4991105;28;20459;-74
2021/10/31 10:59:56;;;;;;;15.80;15.00;;;26.30;89.80;;;;;;4990939;28;20453;-74
2021/10/31 11:02:24;;;;;;;15.73;15.10;;;26.80;86.40;;;;;;4991111;28;20478;-74
2021/10/31 11:04:55;;;;;;;16.23;15.53;;;25.90;87.80;;;;;;4991173;28;20457;-74
2021/10/31 11:07:37;;;;;;;14.60;14.00;;;25.20;89.20;;;;;;4991102;28;20502;-74
2021/10/31 11:10:26;;;;;;;13.13;12.53;;;24.80;90.20;;;;;;4991060;28;21011;-75
2021/10/31 11:12:55;;;;;;;15.17;14.47;;;24.90;90.30;;;;;;4990819;28;20459;-75
2021/10/31 11:15:24;;;;;;;15.20;14.60;;;26.10;88.50;;;;;;4990843;28;20999;-74
2021/10/31 11:17:53;;;;;;;14.97;14.17;;;26.60;84.60;;;;;;4990792;28;20451;-74
2021/10/31 11:20:22;;;;;;;15.10;14.50;;;26.30;84.90;;;;;;4990999;28;20451;-74
2021/10/31 11:22:52;;;;;;;12.63;12.13;;;25.90;86.00;;;;;;4991083;28;20509;-74
2021/10/31 11:25:22;;;;;;;14.40;13.70;;;25.00;86.80;;;;;;4990875;28;21024;-74
2021/10/31 11:27:51;;;;;;;14.13;13.53;;;24.60;89.40;;;;;;4990970;28;20451;-74
2021/10/31 11:30:19;;;;;;;14.97;14.27;;;24.50;89.90;;;;;;4990688;28;20475;-74
2021/10/31 11:32:48;;;;;;;14.63;13.73;;;24.80;89.50;;;;;;4990617;28;20837;-74
2021/10/31 11:35:17;;;;;;;14.00;13.50;;;25.60;86.60;;;;;;4990602;28;20450;-74
2021/10/31 11:37:47;;;;;;;14.20;13.60;;;26.20;83.50;;;;;;4990433;28;20550;-74
2021/10/31 11:40:18;;;;;;;14.90;14.30;;;27.10;81.20;;;;;;4994222;28;20462;-74
2021/10/31 11:42:47;;;;;;;15.23;14.63;;;27.40;79.70;;;;;;4994372;28;20453;-74
2021/10/31 11:45:17;;;;;;;15.23;14.63;;;28.20;77.80;;;;;;4994342;28;20525;-74
2021/10/31 11:47:46;;;;;;;14.90;14.30;;;28.60;75.70;;;;;;4994224;28;20849;-75
2021/10/31 11:50:19;;;;;;;15.47;14.87;;;28.70;73.30;;;;;;4994159;28;20647;-75
2021/10/31 11:52:51;;;;;;;15.27;14.57;;;29.70;70.80;;;;;;4994138;28;20461;-74
2021/10/31 11:55:50;;;;;;;14.80;14.20;;;29.20;68.90;;;;;;4993946;28;20936;-74
2021/10/31 11:58:55;;;;;;;13.87;13.30;;;28.50;71.00;;;;;;4994198;28;20481;-74
2021/10/31 12:01:39;;;;;;;14.00;13.40;;;28.90;70.20;;;;;;4994323;28;20458;-74
2021/10/31 12:04:08;;;;;;;14.03;13.53;;;28.60;68.50;;;;;;4991908;28;20462;-74
2021/10/31 12:06:43;;;;;;;14.20;13.63;;;27.30;71.00;;;;;;4993917;28;20490;-74
2021/10/31 12:09:34;;;;;;;14.27;13.67;;;26.70;72.20;;;;;;4993944;28;20446;-75
2021/10/31 12:12:15;;;;;;;13.97;13.37;;;25.90;74.50;;;;;;4979004;28;20458;-73
2021/10/31 12:15:02;;;;;;;13.40;12.90;;;26.40;73.40;;;;;;4993721;28;20873;-75
2021/10/31 12:18:04;;;;;;;14.10;13.60;;;27.30;70.50;;;;;;4993816;28;20517;-74
2021/10/31 12:20:52;;;;;;;13.63;13.13;;;28.30;67.70;;;;;;4993717;28;20451;-74
2021/10/31 12:23:24;;;;;;;14.00;13.50;;;29.10;64.90;;;;;;4993945;28;20461;-75
2021/10/31 12:25:52;;;;;;;13.70;13.20;;;29.30;64.10;;;;;;4993755;28;20479;-74
2021/10/31 12:28:40;;;;;;;15.10;14.50;;;29.70;62.20;;;;;;4993844;28;20451;-75
2021/10/31 12:31:28;;;;;;;14.60;14.00;;;29.60;61.60;;;;;;4993550;28;20474;-74
2021/10/31 12:34:12;;;;;;;14.00;13.40;;;29.50;61.20;;;;;;4993493;28;21008;-75
2021/10/31 12:36:41;;;;;;;13.40;12.90;;;29.10;60.30;;;;;;4993361;28;20873;-75
2021/10/31 12:40:00;;;;;;;12.67;12.17;;;28.20;62.30;;;;;;4993345;28;20819;-75
2021/10/31 12:42:30;;;;;;;14.47;13.70;;;28.20;61.00;;;;;;4993391;28;20455;-75